Time;durP1;ratioP1;P1;durP2;ratioP2;P2;SDS_P1;SDS_P2;PMS_P1;PMS_P2;Temp;Humidity;BMP_temperature;BMP_pressure;BME280_temperature;BME280_humidity;BME280_pressure;Samples;Min_cycle;Max_cycle;Signal;HPM_P1;HPM_P2
2022/03/01 00:02:24;;;;;;;20.75;6.97;;;;;;;;;;5034112;28;20028;-82
2022/03/01 00:04:52;;;;;;;15.02;6.47;;;;;;;;;;5035200;28;20017;-82
2022/03/01 00:07:19;;;;;;;22.10;7.40;;;;;;;;;;5038158;28;20030;-83
2022/03/01 00:09:45;;;;;;;16.80;6.50;;;;;;;;;;5034981;28;20386;-82
2022/03/01 00:12:11;;;;;;;12.38;6.00;;;;;;;;;;5034949;28;20523;-82
2022/03/01 00:14:38;;;;;;;18.60;7.07;;;;;;;;;;5035953;28;20021;-83
2022/03/01 00:17:04;;;;;;;70.30;25.08;;;;;;;;;;5032470;28;20018;-82
2022/03/01 00:19:31;;;;;;;33.42;13.45;;;;;;;;;;5038240;28;20033;-82
2022/03/01 00:21:57;;;;;;;22.33;9.93;;;;;;;;;;5036052;28;20513;-83
2022/03/01 00:24:24;;;;;;;11.75;6.50;;;;;;;;;;5035324;28;20059;-82
2022/03/01 00:26:50;;;;;;;14.77;6.55;;;;;;;;;;5036196;28;20028;-83
2022/03/01 00:29:17;;;;;;;15.05;6.45;;;;;;;;;;5032797;28;20025;-82
2022/03/01 00:31:43;;;;;;;17.85;5.97;;;;;;;;;;5036065;28;20063;-82
2022/03/01 00:34:10;;;;;;;17.10;5.82;;;;;;;;;;5036456;28;20075;-83
2022/03/01 00:36:36;;;;;;;13.35;5.75;;;;;;;;;;5035805;28;20030;-83
2022/03/01 00:39:07;;;;;;;19.38;5.90;;;;;;;;;;5036107;28;20027;-82
2022/03/01 00:41:33;;;;;;;11.35;5.32;;;;;;;;;;5034199;28;20060;-82
2022/03/01 00:43:59;;;;;;;22.35;6.97;;;;;;;;;;5032494;28;20036;-82
2022/03/01 00:46:26;;;;;;;14.27;6.15;;;;;;;;;;5037323;28;20471;-82
2022/03/01 00:48:53;;;;;;;15.93;6.47;;;;;;;;;;5034438;28;20037;-82
2022/03/01 00:51:20;;;;;;;15.52;6.35;;;;;;;;;;5034070;28;20041;-82
2022/03/01 00:53:46;;;;;;;16.60;6.80;;;;;;;;;;5035495;28;20500;-82
2022/03/01 00:56:13;;;;;;;12.23;5.10;;;;;;;;;;5031380;28;20386;-82
2022/03/01 00:58:39;;;;;;;17.13;5.22;;;;;;;;;;5036517;28;20030;-82
2022/03/01 01:01:05;;;;;;;15.15;5.53;;;;;;;;;;5033820;28;20029;-82
2022/03/01 01:03:32;;;;;;;10.75;4.75;;;;;;;;;;5035403;28;20470;-82
2022/03/01 01:05:58;;;;;;;11.48;4.57;;;;;;;;;;5035315;28;20028;-82
2022/03/01 01:08:24;;;;;;;12.70;5.20;;;;;;;;;;5032751;28;20017;-83
2022/03/01 01:10:51;;;;;;;12.35;5.07;;;;;;;;;;5032959;28;20045;-82
2022/03/01 01:13:17;;;;;;;7.50;4.45;;;;;;;;;;5036976;28;20341;-82
2022/03/01 01:15:44;;;;;;;10.63;5.18;;;;;;;;;;5035086;28;20032;-83
2022/03/01 01:18:10;;;;;;;9.38;4.80;;;;;;;;;;5035021;28;20022;-83
2022/03/01 01:20:37;;;;;;;8.85;4.63;;;;;;;;;;5034277;28;20371;-82
2022/03/01 01:23:04;;;;;;;11.68;4.85;;;;;;;;;;5031479;28;20512;-82
2022/03/01 01:25:30;;;;;;;12.55;4.57;;;;;;;;;;5037185;28;20035;-82
2022/03/01 01:27:58;;;;;;;11.13;4.60;;;;;;;;;;5033581;28;20032;-82
2022/03/01 01:30:26;;;;;;;9.35;5.00;;;;;;;;;;5033005;28;20041;-82
2022/03/01 01:32:52;;;;;;;9.88;5.03;;;;;;;;;;5035227;28;20021;-83
2022/03/01 01:35:20;;;;;;;11.40;5.00;;;;;;;;;;5031796;28;20028;-82
2022/03/01 01:37:47;;;;;;;13.63;4.35;;;;;;;;;;5034950;28;20368;-83
2022/03/01 01:40:16;;;;;;;12.23;4.95;;;;;;;;;;5035802;28;20049;-82
2022/03/01 01:42:42;;;;;;;15.82;6.10;;;;;;;;;;5034446;28;20027;-81
2022/03/01 01:45:09;;;;;;;13.10;5.28;;;;;;;;;;5032803;28;20054;-82
2022/03/01 01:47:35;;;;;;;14.63;5.15;;;;;;;;;;5046045;28;20397;-82
2022/03/01 01:50:02;;;;;;;9.35;5.22;;;;;;;;;;5031996;28;20026;-82
2022/03/01 01:52:28;;;;;;;8.73;4.35;;;;;;;;;;5035648;28;20038;-82
2022/03/01 01:54:55;;;;;;;9.82;4.32;;;;;;;;;;5034779;28;20026;-82
2022/03/01 01:57:22;;;;;;;13.32;5.60;;;;;;;;;;5034426;28;20036;-82
2022/03/01 01:59:49;;;;;;;13.13;5.15;;;;;;;;;;5034611;28;20029;-82
2022/03/01 02:02:17;;;;;;;15.00;5.55;;;;;;;;;;5031002;28;20524;-82
2022/03/01 02:04:44;;;;;;;9.85;5.05;;;;;;;;;;5035464;28;20052;-82
2022/03/01 02:07:11;;;;;;;10.30;5.60;;;;;;;;;;5033760;28;20037;-82
2022/03/01 02:09:37;;;;;;;11.60;5.10;;;;;;;;;;5035940;28;20021;-82
2022/03/01 02:12:04;;;;;;;10.95;4.20;;;;;;;;;;5038190;28;20399;-82
2022/03/01 02:14:31;;;;;;;13.43;4.82;;;;;;;;;;5036772;28;20014;-82
2022/03/01 02:16:59;;;;;;;12.20;4.55;;;;;;;;;;5034830;28;20035;-82
2022/03/01 02:19:25;;;;;;;11.40;5.35;;;;;;;;;;5040390;28;20032;-82
2022/03/01 02:21:55;;;;;;;10.48;4.90;;;;;;;;;;5038378;28;20030;-82
2022/03/01 02:24:22;;;;;;;11.13;4.85;;;;;;;;;;5038546;28;20045;-82
2022/03/01 02:26:48;;;;;;;10.10;4.68;;;;;;;;;;5038157;28;20474;-82
2022/03/01 02:29:14;;;;;;;10.73;5.30;;;;;;;;;;5034407;28;20022;-82
2022/03/01 02:31:41;;;;;;;10.40;4.72;;;;;;;;;;5039490;28;20509;-82
2022/03/01 02:34:08;;;;;;;17.92;6.18;;;;;;;;;;5038706;28;20018;-83
2022/03/01 02:36:34;;;;;;;15.65;5.00;;;;;;;;;;5038142;28;20029;-82
2022/03/01 02:39:00;;;;;;;9.88;5.00;;;;;;;;;;5038115;28;20386;-82
2022/03/01 02:41:27;;;;;;;9.85;4.97;;;;;;;;;;5035443;28;20041;-82
2022/03/01 02:43:53;;;;;;;8.90;4.45;;;;;;;;;;5036545;28;20040;-82
2022/03/01 02:46:19;;;;;;;12.20;4.80;;;;;;;;;;5037921;28;20018;-82
2022/03/01 02:48:46;;;;;;;11.32;4.68;;;;;;;;;;5036777;28;20033;-82
2022/03/01 02:51:12;;;;;;;11.35;4.82;;;;;;;;;;5037662;28;20037;-82
2022/03/01 02:53:38;;;;;;;11.00;4.65;;;;;;;;;;5036425;28;20035;-82
2022/03/01 02:56:05;;;;;;;11.15;5.07;;;;;;;;;;5033412;28;20508;-82
2022/03/01 02:58:31;;;;;;;14.77;4.80;;;;;;;;;;5039727;28;20452;-82
2022/03/01 03:00:58;;;;;;;9.98;4.82;;;;;;;;;;5036648;28;20079;-82
2022/03/01 03:03:25;;;;;;;9.70;4.78;;;;;;;;;;5037727;28;20033;-82
2022/03/01 03:05:51;;;;;;;11.15;4.80;;;;;;;;;;5037909;28;20025;-82
2022/03/01 03:08:17;;;;;;;10.88;4.88;;;;;;;;;;5034213;28;20022;-82
2022/03/01 03:10:44;;;;;;;10.95;4.80;;;;;;;;;;5036313;28;20046;-82
2022/03/01 03:13:10;;;;;;;14.60;5.20;;;;;;;;;;5038552;28;20028;-83
2022/03/01 03:15:37;;;;;;;12.00;4.85;;;;;;;;;;5037465;28;20026;-83
2022/03/01 03:18:04;;;;;;;10.60;4.45;;;;;;;;;;5037234;28;20028;-82
2022/03/01 03:20:30;;;;;;;20.35;9.30;;;;;;;;;;5035040;28;20025;-82
2022/03/01 03:22:57;;;;;;;24.75;10.30;;;;;;;;;;5034889;28;20029;-82
2022/03/01 03:25:23;;;;;;;13.52;6.18;;;;;;;;;;5037343;28;20033;-82
2022/03/01 03:27:50;;;;;;;11.27;4.65;;;;;;;;;;5035554;28;20057;-82
2022/03/01 03:30:16;;;;;;;20.27;6.13;;;;;;;;;;5036886;28;20409;-82
2022/03/01 03:32:42;;;;;;;15.98;6.55;;;;;;;;;;5035797;28;20037;-82
2022/03/01 03:35:09;;;;;;;14.57;8.75;;;;;;;;;;5032727;28;20025;-82
2022/03/01 03:37:36;;;;;;;16.33;8.10;;;;;;;;;;5039064;28;20030;-82
2022/03/01 03:40:03;;;;;;;17.42;7.20;;;;;;;;;;5036593;28;20048;-82
2022/03/01 03:42:29;;;;;;;13.20;6.15;;;;;;;;;;5036873;28;20429;-82
2022/03/01 03:44:56;;;;;;;15.00;5.28;;;;;;;;;;5038819;28;20458;-82
2022/03/01 03:47:22;;;;;;;10.90;4.78;;;;;;;;;;5048408;28;20040;-82
2022/03/01 03:49:48;;;;;;;10.13;4.80;;;;;;;;;;5036054;28;20355;-82
2022/03/01 03:52:15;;;;;;;11.25;4.90;;;;;;;;;;5037783;28;20049;-82
2022/03/01 03:54:41;;;;;;;10.23;4.25;;;;;;;;;;5036209;28;20440;-82
2022/03/01 03:57:08;;;;;;;8.38;4.00;;;;;;;;;;5036481;28;20033;-81
2022/03/01 03:59:35;;;;;;;10.60;4.63;;;;;;;;;;5035576;28;20019;-82
2022/03/01 04:02:03;;;;;;;11.02;4.97;;;;;;;;;;5031979;28;20025;-82
2022/03/01 04:04:29;;;;;;;9.35;4.25;;;;;;;;;;5037587;28;20036;-82
2022/03/01 04:06:55;;;;;;;12.85;4.22;;;;;;;;;;5035273;28;20028;-82
2022/03/01 04:09:22;;;;;;;9.55;4.47;;;;;;;;;;5036472;28;20044;-82
2022/03/01 04:11:48;;;;;;;11.43;4.47;;;;;;;;;;5036268;28;20085;-82
2022/03/01 04:14:14;;;;;;;11.07;5.10;;;;;;;;;;5032605;28;20064;-82
2022/03/01 04:16:42;;;;;;;9.50;4.00;;;;;;;;;;5037263;28;20390;-81
2022/03/01 04:19:09;;;;;;;11.40;4.47;;;;;;;;;;5035513;28;20024;-82
2022/03/01 04:21:35;;;;;;;15.63;5.82;;;;;;;;;;5036257;28;20083;-82
2022/03/01 04:24:02;;;;;;;14.43;5.35;;;;;;;;;;5035830;28;20027;-82
2022/03/01 04:26:28;;;;;;;9.23;4.40;;;;;;;;;;5034063;28;20056;-82
2022/03/01 04:28:55;;;;;;;9.77;4.60;;;;;;;;;;5033898;28;20018;-82
2022/03/01 04:31:22;;;;;;;8.50;4.10;;;;;;;;;;5035415;28;20041;-82
2022/03/01 04:33:48;;;;;;;14.15;4.45;;;;;;;;;;5035363;28;20032;-82
2022/03/01 04:36:15;;;;;;;14.40;4.68;;;;;;;;;;5035822;28;20390;-82
2022/03/01 04:38:41;;;;;;;10.57;4.55;;;;;;;;;;5035358;28;20474;-82
2022/03/01 04:41:09;;;;;;;13.70;4.60;;;;;;;;;;5030645;28;20122;-82
2022/03/01 04:43:36;;;;;;;11.85;4.55;;;;;;;;;;5037722;28;20024;-82
2022/03/01 04:46:03;;;;;;;11.20;4.78;;;;;;;;;;5034389;28;20024;-82
2022/03/01 04:48:29;;;;;;;13.52;4.80;;;;;;;;;;5035560;28;20582;-82
2022/03/01 04:50:56;;;;;;;10.88;4.65;;;;;;;;;;5035757;28;20029;-82
2022/03/01 04:53:23;;;;;;;8.77;4.78;;;;;;;;;;5032675;28;20027;-81
2022/03/01 04:55:49;;;;;;;8.80;4.55;;;;;;;;;;5034664;28;20017;-81
2022/03/01 04:58:16;;;;;;;8.50;4.93;;;;;;;;;;5035722;28;20029;-81
2022/03/01 05:00:43;;;;;;;14.85;5.00;;;;;;;;;;5035443;28;20039;-81
2022/03/01 05:03:09;;;;;;;9.25;4.43;;;;;;;;;;5035627;28;20025;-82
2022/03/01 05:05:35;;;;;;;13.07;4.80;;;;;;;;;;5034419;28;20024;-82
2022/03/01 05:08:02;;;;;;;12.27;4.50;;;;;;;;;;5031729;28;20083;-81
2022/03/01 05:10:29;;;;;;;13.32;4.53;;;;;;;;;;5037432;28;20030;-81
2022/03/01 05:12:57;;;;;;;13.38;4.55;;;;;;;;;;5035320;28;20025;-81
2022/03/01 05:15:24;;;;;;;9.02;4.35;;;;;;;;;;5035225;28;20091;-81
2022/03/01 05:17:50;;;;;;;11.55;4.82;;;;;;;;;;5035301;28;20029;-81
2022/03/01 05:20:17;;;;;;;11.82;4.60;;;;;;;;;;5029880;28;20018;-82
2022/03/01 05:22:44;;;;;;;11.75;4.22;;;;;;;;;;5034355;28;20041;-82
2022/03/01 05:25:12;;;;;;;8.27;4.95;;;;;;;;;;5034559;28;20479;-81
2022/03/01 05:27:40;;;;;;;11.98;4.70;;;;;;;;;;5035290;28;20052;-82
2022/03/01 05:30:07;;;;;;;11.13;4.88;;;;;;;;;;5034997;28;20025;-81
2022/03/01 05:32:36;;;;;;;9.52;4.88;;;;;;;;;;5033609;28;20417;-84
2022/03/01 05:35:03;;;;;;;8.32;4.47;;;;;;;;;;5031173;28;20014;-81
2022/03/01 05:37:29;;;;;;;7.93;4.05;;;;;;;;;;5036831;28;20026;-81
2022/03/01 05:39:56;;;;;;;10.00;4.18;;;;;;;;;;5033549;28;20030;-82
2022/03/01 05:42:22;;;;;;;11.35;4.53;;;;;;;;;;5034925;28;20055;-84
2022/03/01 05:44:48;;;;;;;9.32;4.82;;;;;;;;;;5034383;28;20352;-82
2022/03/01 05:47:15;;;;;;;10.35;4.55;;;;;;;;;;5030931;28;20026;-81
2022/03/01 05:49:42;;;;;;;12.60;4.93;;;;;;;;;;5035649;28;20028;-82
2022/03/01 05:52:08;;;;;;;10.75;4.60;;;;;;;;;;5035136;28;20041;-82
2022/03/01 05:54:34;;;;;;;12.77;5.10;;;;;;;;;;5034747;28;20020;-81
2022/03/01 05:57:01;;;;;;;9.73;4.85;;;;;;;;;;5033364;28;20436;-81
2022/03/01 05:59:27;;;;;;;11.73;4.85;;;;;;;;;;5031420;28;20020;-82
2022/03/01 06:01:53;;;;;;;11.50;5.65;;;;;;;;;;5033122;28;20055;-82
2022/03/01 06:04:20;;;;;;;11.60;6.28;;;;;;;;;;5033936;28;20036;-82
2022/03/01 06:06:46;;;;;;;13.15;5.97;;;;;;;;;;5034545;28;20055;-82
2022/03/01 06:09:12;;;;;;;10.15;4.93;;;;;;;;;;5033676;28;20032;-82
2022/03/01 06:11:39;;;;;;;11.70;5.65;;;;;;;;;;5034108;28;20078;-82
2022/03/01 06:14:05;;;;;;;10.43;5.60;;;;;;;;;;5030928;28;20029;-82
2022/03/01 06:16:32;;;;;;;14.15;5.00;;;;;;;;;;5036925;28;20037;-82
2022/03/01 06:18:58;;;;;;;10.73;5.22;;;;;;;;;;5034407;28;20032;-81
2022/03/01 06:21:25;;;;;;;15.75;6.20;;;;;;;;;;5034569;28;20418;-82
2022/03/01 06:23:51;;;;;;;16.23;6.43;;;;;;;;;;5034496;28;20397;-82
2022/03/01 06:26:18;;;;;;;12.70;6.07;;;;;;;;;;5030977;28;20023;-84
2022/03/01 06:28:44;;;;;;;17.05;7.65;;;;;;;;;;5034706;28;20410;-82
2022/03/01 06:31:11;;;;;;;19.67;6.63;;;;;;;;;;5034954;28;20033;-81
2022/03/01 06:33:37;;;;;;;80.88;36.13;;;;;;;;;;5034047;28;20022;-81
2022/03/01 06:36:03;;;;;;;17.17;8.35;;;;;;;;;;5033260;28;20025;-82
2022/03/01 06:38:30;;;;;;;81.78;38.97;;;;;;;;;;5030109;28;20033;-81
2022/03/01 06:40:56;;;;;;;17.52;8.48;;;;;;;;;;5032071;28;20524;-81
2022/03/01 06:43:23;;;;;;;14.90;7.82;;;;;;;;;;5034424;28;20040;-82
2022/03/01 06:45:50;;;;;;;11.55;6.00;;;;;;;;;;5034432;28;20026;-82
2022/03/01 06:48:16;;;;;;;13.60;6.70;;;;;;;;;;5033980;28;20021;-81
2022/03/01 06:50:43;;;;;;;16.23;8.40;;;;;;;;;;5034136;28;20025;-82
2022/03/01 06:53:10;;;;;;;14.60;7.38;;;;;;;;;;5030150;28;20030;-81
2022/03/01 06:55:37;;;;;;;13.98;8.15;;;;;;;;;;5048583;28;20025;-82
2022/03/01 06:58:03;;;;;;;18.92;10.60;;;;;;;;;;5038302;28;20042;-82
2022/03/01 07:00:29;;;;;;;16.95;7.07;;;;;;;;;;5037641;28;20034;-82
2022/03/01 07:02:56;;;;;;;26.50;9.23;;;;;;;;;;5037367;28;20474;-82
2022/03/01 07:05:23;;;;;;;18.55;7.55;;;;;;;;;;5033764;28;20014;-82
2022/03/01 07:07:50;;;;;;;17.50;7.25;;;;;;;;;;5036994;28;20029;-82
2022/03/01 07:10:16;;;;;;;16.65;6.30;;;;;;;;;;5038913;28;20034;-82
2022/03/01 07:12:44;;;;;;;9.55;4.88;;;;;;;;;;5037591;28;20040;-82
2022/03/01 07:15:10;;;;;;;9.93;4.43;;;;;;;;;;5037510;28;20030;-82
2022/03/01 07:17:37;;;;;;;10.50;4.13;;;;;;;;;;5034987;28;20024;-82
2022/03/01 07:20:04;;;;;;;12.57;3.70;;;;;;;;;;5033516;28;20029;-83
2022/03/01 07:22:31;;;;;;;9.52;4.70;;;;;;;;;;5038440;28;20029;-83
2022/03/01 07:24:57;;;;;;;10.65;5.20;;;;;;;;;;5037490;28;20135;-83
2022/03/01 07:27:24;;;;;;;9.27;4.47;;;;;;;;;;5037238;28;20063;-83
2022/03/01 07:29:50;;;;;;;11.38;4.35;;;;;;;;;;5037164;28;20023;-83
2022/03/01 07:32:16;;;;;;;8.98;4.28;;;;;;;;;;5033062;28;20043;-83
2022/03/01 07:34:43;;;;;;;11.80;4.28;;;;;;;;;;5038248;28;20030;-83
2022/03/01 07:37:09;;;;;;;22.25;7.22;;;;;;;;;;5036323;28;20037;-83
2022/03/01 07:39:36;;;;;;;14.73;5.65;;;;;;;;;;5036855;28;20016;-84
2022/03/01 07:42:02;;;;;;;16.08;4.13;;;;;;;;;;5036819;28;20114;-83
2022/03/01 07:44:29;;;;;;;10.52;4.07;;;;;;;;;;5034840;28;20017;-83
2022/03/01 07:46:56;;;;;;;9.80;3.83;;;;;;;;;;5034085;28;20030;-84
2022/03/01 07:49:22;;;;;;;9.32;3.55;;;;;;;;;;5038759;28;20479;-83
2022/03/01 07:51:49;;;;;;;16.08;3.92;;;;;;;;;;5035704;28;20040;-83
2022/03/01 07:54:16;;;;;;;8.98;3.80;;;;;;;;;;5036846;28;20471;-84
2022/03/01 07:56:42;;;;;;;10.27;3.58;;;;;;;;;;5036828;28;20401;-83
2022/03/01 07:59:09;;;;;;;7.55;3.75;;;;;;;;;;5031214;28;20028;-83
2022/03/01 08:01:35;;;;;;;13.02;4.18;;;;;;;;;;5038115;28;20029;-84
2022/03/01 08:04:01;;;;;;;11.38;4.53;;;;;;;;;;5036778;28;20018;-84
2022/03/01 08:06:28;;;;;;;13.48;4.85;;;;;;;;;;5036214;28;20087;-85
2022/03/01 08:08:54;;;;;;;11.13;4.88;;;;;;;;;;5029220;28;20028;-85
2022/03/01 08:11:21;;;;;;;11.98;4.32;;;;;;;;;;5030918;28;20036;-80
2022/03/01 08:13:47;;;;;;;10.80;4.40;;;;;;;;;;5035623;28;20026;-85
2022/03/01 08:16:14;;;;;;;8.85;4.05;;;;;;;;;;5035034;28;20052;-86
2022/03/01 08:18:40;;;;;;;7.13;3.50;;;;;;;;;;5037289;28;20029;-87
2022/03/01 08:21:07;;;;;;;12.02;3.92;;;;;;;;;;5039718;28;20022;-87
2022/03/01 08:23:34;;;;;;;7.68;3.60;;;;;;;;;;5038231;28;20025;-87
2022/03/01 08:26:01;;;;;;;7.97;3.55;;;;;;;;;;5033017;28;20028;-87
2022/03/01 08:28:27;;;;;;;6.90;3.40;;;;;;;;;;5032957;28;20393;-87
2022/03/01 08:30:54;;;;;;;8.82;3.20;;;;;;;;;;5032578;28;20030;-87
2022/03/01 08:33:21;;;;;;;8.07;3.63;;;;;;;;;;5033354;28;20036;-88
2022/03/01 08:35:48;;;;;;;9.13;3.45;;;;;;;;;;5033772;28;20027;-88
2022/03/01 08:38:15;;;;;;;11.35;3.25;;;;;;;;;;5029810;28;20032;-88
2022/03/01 08:40:41;;;;;;;6.35;3.30;;;;;;;;;;5034660;28;20402;-88
2022/03/01 08:43:09;;;;;;;4.55;2.90;;;;;;;;;;5049396;28;20038;-85
2022/03/01 08:45:35;;;;;;;6.13;3.28;;;;;;;;;;5034522;28;20380;-88
2022/03/01 08:48:03;;;;;;;10.35;3.60;;;;;;;;;;5034491;28;20020;-88
2022/03/01 08:50:30;;;;;;;7.18;3.50;;;;;;;;;;5032710;28;20478;-88
2022/03/01 08:52:56;;;;;;;5.05;3.28;;;;;;;;;;5029210;28;20087;-88
2022/03/01 08:55:23;;;;;;;6.28;3.22;;;;;;;;;;5035870;28;20036;-89
2022/03/01 08:57:49;;;;;;;6.82;3.17;;;;;;;;;;5037516;28;20228;-89
2022/03/01 09:00:16;;;;;;;5.72;3.40;;;;;;;;;;5045739;28;20024;-89
2022/03/01 09:02:43;;;;;;;5.68;3.08;;;;;;;;;;5043880;28;20039;-88
2022/03/01 09:05:09;;;;;;;6.35;3.35;;;;;;;;;;5029363;28;20021;-88
2022/03/01 09:07:37;;;;;;;10.07;3.25;;;;;;;;;;5035854;28;20041;-88
2022/03/01 09:10:05;;;;;;;7.03;3.50;;;;;;;;;;5034439;28;20025;-88
2022/03/01 09:12:31;;;;;;;6.82;3.20;;;;;;;;;;5034047;28;20041;-88
2022/03/01 09:14:57;;;;;;;5.00;2.95;;;;;;;;;;5033007;28;20021;-88
2022/03/01 09:17:24;;;;;;;6.32;3.10;;;;;;;;;;5031382;28;20030;-89
2022/03/01 09:19:51;;;;;;;5.18;3.08;;;;;;;;;;5038203;28;20021;-88
2022/03/01 09:22:17;;;;;;;6.38;3.35;;;;;;;;;;5039681;28;20080;-88
2022/03/01 09:24:44;;;;;;;4.80;3.00;;;;;;;;;;5038599;28;20131;-89
2022/03/01 09:27:11;;;;;;;10.13;3.55;;;;;;;;;;5036567;28;20043;-89
2022/03/01 09:29:37;;;;;;;11.40;3.60;;;;;;;;;;5034266;28;20017;-88
2022/03/01 09:32:04;;;;;;;6.90;3.42;;;;;;;;;;5031025;28;20037;-89
2022/03/01 09:34:31;;;;;;;7.38;3.55;;;;;;;;;;5035703;28;20029;-89
2022/03/01 09:36:57;;;;;;;6.80;3.53;;;;;;;;;;5034326;28;20021;-89
2022/03/01 09:39:24;;;;;;;7.70;3.63;;;;;;;;;;5033899;28;20490;-89
2022/03/01 09:41:51;;;;;;;6.43;3.17;;;;;;;;;;5033484;28;20040;-89
2022/03/01 09:44:18;;;;;;;8.10;3.30;;;;;;;;;;5030418;28;20044;-89
2022/03/01 09:46:44;;;;;;;6.97;3.38;;;;;;;;;;5034202;28;20022;-89
2022/03/01 09:49:11;;;;;;;8.57;3.70;;;;;;;;;;5034061;28;20029;-88
2022/03/01 09:51:41;;;;;;;5.15;3.65;;;;;;;;;;5032669;28;20040;-88
2022/03/01 09:54:08;;;;;;;7.57;3.28;;;;;;;;;;5032410;28;20021;-89
2022/03/01 09:56:35;;;;;;;8.43;4.38;;;;;;;;;;5029705;28;20032;-89
2022/03/01 09:59:01;;;;;;;6.53;3.30;;;;;;;;;;5030450;28;20037;-89
2022/03/01 10:01:28;;;;;;;7.57;3.53;;;;;;;;;;5035451;28;20037;-88
2022/03/01 10:04:06;;;;;;;8.23;3.35;;;;;;;;;;5032223;28;20026;-89
2022/03/01 10:06:39;;;;;;;5.60;2.97;;;;;;;;;;5032397;28;20032;-89
2022/03/01 10:09:12;;;;;;;7.13;3.20;;;;;;;;;;5032835;28;20018;-89
2022/03/01 10:11:39;;;;;;;5.80;2.95;;;;;;;;;;5031127;28;20036;-89
2022/03/01 10:14:05;;;;;;;4.07;2.83;;;;;;;;;;5044194;28;20029;-89
2022/03/01 10:16:45;;;;;;;7.47;3.05;;;;;;;;;;5048163;28;20033;-89
2022/03/01 10:19:20;;;;;;;10.73;3.97;;;;;;;;;;5032981;28;20542;-89
2022/03/01 10:21:56;;;;;;;7.03;2.72;;;;;;;;;;5037897;28;20035;-89
2022/03/01 10:24:23;;;;;;;10.02;3.08;;;;;;;;;;5039234;28;20025;-89
2022/03/01 10:26:49;;;;;;;10.98;3.00;;;;;;;;;;5036341;28;20031;-89
2022/03/01 10:29:17;;;;;;;9.20;2.67;;;;;;;;;;5030783;28;20091;-89
2022/03/01 10:31:49;;;;;;;10.63;2.60;;;;;;;;;;5037729;28;20034;-89
2022/03/01 10:34:16;;;;;;;10.45;2.72;;;;;;;;;;5036685;28;20517;-89
2022/03/01 10:36:44;;;;;;;6.88;2.22;;;;;;;;;;5037409;28;20013;-89
2022/03/01 10:39:12;;;;;;;8.80;2.85;;;;;;;;;;5035469;28;20389;-88
2022/03/01 10:41:40;;;;;;;13.02;2.67;;;;;;;;;;5034842;28;20057;-89
2022/03/01 10:44:07;;;;;;;9.40;2.53;;;;;;;;;;5033232;28;20022;-89
2022/03/01 10:46:41;;;;;;;9.70;2.70;;;;;;;;;;5038695;28;20026;-89
2022/03/01 10:49:10;;;;;;;7.80;2.25;;;;;;;;;;5035690;28;20417;-89
2022/03/01 10:51:53;;;;;;;11.75;2.67;;;;;;;;;;5036664;28;20044;-88
2022/03/01 10:54:25;;;;;;;9.02;2.60;;;;;;;;;;5036943;28;20254;-88
2022/03/01 10:56:55;;;;;;;6.38;2.40;;;;;;;;;;5035676;28;20060;-88
2022/03/01 10:59:24;;;;;;;8.95;2.38;;;;;;;;;;5030789;28;20026;-88
2022/03/01 11:01:51;;;;;;;11.50;2.70;;;;;;;;;;5035769;28;20021;-88
2022/03/01 11:04:17;;;;;;;7.82;2.42;;;;;;;;;;5037921;28;20037;-88
2022/03/01 11:06:44;;;;;;;6.20;2.30;;;;;;;;;;5036411;28;20033;-88
2022/03/01 11:09:12;;;;;;;8.10;2.38;;;;;;;;;;5036189;28;20021;-89
2022/03/01 11:11:39;;;;;;;8.75;2.30;;;;;;;;;;5034154;28;20371;-88
2022/03/01 11:14:06;;;;;;;7.30;2.50;;;;;;;;;;5032069;28;20036;-88
2022/03/01 11:16:51;;;;;;;7.95;2.67;;;;;;;;;;5037710;28;20417;-88
2022/03/01 11:19:38;;;;;;;9.15;2.65;;;;;;;;;;5050313;28;20420;-86
2022/03/01 11:22:06;;;;;;;8.00;2.67;;;;;;;;;;5037919;28;20022;-88
2022/03/01 11:24:32;;;;;;;6.80;2.55;;;;;;;;;;5036543;28;20036;-87
2022/03/01 11:27:08;;;;;;;6.45;2.33;;;;;;;;;;5037731;28;20375;-86
2022/03/01 11:29:41;;;;;;;9.95;2.70;;;;;;;;;;5034566;28;20021;-86
2022/03/01 11:32:11;;;;;;;8.70;2.60;;;;;;;;;;5032179;28;20051;-87
2022/03/01 11:34:39;;;;;;;11.52;2.95;;;;;;;;;;5037336;28;20025;-87
2022/03/01 11:37:12;;;;;;;9.25;2.42;;;;;;;;;;5042553;28;20035;-86
2022/03/01 11:39:38;;;;;;;8.95;2.33;;;;;;;;;;5039591;28;20040;-87
2022/03/01 11:42:07;;;;;;;10.13;2.97;;;;;;;;;;5034826;28;20042;-87
2022/03/01 11:44:34;;;;;;;12.30;2.63;;;;;;;;;;5021322;28;20031;-86
2022/03/01 11:47:02;;;;;;;7.60;2.30;;;;;;;;;;5048945;28;20033;-86
2022/03/01 11:49:34;;;;;;;8.15;2.70;;;;;;;;;;5037901;28;20489;-86
2022/03/01 11:52:00;;;;;;;5.75;2.63;;;;;;;;;;5034115;28;20033;-86
2022/03/01 11:54:28;;;;;;;7.25;2.72;;;;;;;;;;5034002;28;20032;-87
2022/03/01 11:56:55;;;;;;;7.53;2.95;;;;;;;;;;5034355;28;20021;-87
2022/03/01 11:59:22;;;;;;;9.85;3.20;;;;;;;;;;5032270;28;20013;-87
2022/03/01 12:01:49;;;;;;;6.25;2.95;;;;;;;;;;5032531;28;20033;-85
2022/03/01 12:04:20;;;;;;;12.18;3.58;;;;;;;;;;5036376;28;20038;-86
2022/03/01 12:06:50;;;;;;;13.68;3.88;;;;;;;;;;5034064;28;20025;-86
2022/03/01 12:09:17;;;;;;;8.35;3.55;;;;;;;;;;5033392;28;20025;-85
2022/03/01 12:11:44;;;;;;;7.57;3.80;;;;;;;;;;5035163;28;20028;-86
2022/03/01 12:14:13;;;;;;;13.55;3.90;;;;;;;;;;5029696;28;20032;-85
2022/03/01 12:16:39;;;;;;;9.30;4.05;;;;;;;;;;5037451;28;20035;-86
2022/03/01 12:19:06;;;;;;;9.27;4.32;;;;;;;;;;5035427;28;20014;-87
2022/03/01 12:21:32;;;;;;;11.50;4.50;;;;;;;;;;5035223;28;20047;-86
2022/03/01 12:23:58;;;;;;;8.32;3.95;;;;;;;;;;5034231;28;20009;-86
2022/03/01 12:26:27;;;;;;;7.45;3.55;;;;;;;;;;5033785;28;20032;-86
2022/03/01 12:28:56;;;;;;;8.80;3.97;;;;;;;;;;5035447;28;20026;-86
2022/03/01 12:31:26;;;;;;;8.60;3.75;;;;;;;;;;5035535;28;20038;-87
2022/03/01 12:34:02;;;;;;;15.05;4.22;;;;;;;;;;5033943;28;20486;-86
2022/03/01 12:36:49;;;;;;;9.85;3.85;;;;;;;;;;5034819;28;20032;-86
2022/03/01 12:39:16;;;;;;;8.88;3.85;;;;;;;;;;5034647;28;20026;-86
2022/03/01 12:41:43;;;;;;;16.17;4.38;;;;;;;;;;5034602;28;20049;-86
2022/03/01 12:44:11;;;;;;;10.35;4.38;;;;;;;;;;5030956;28;20033;-87
2022/03/01 12:46:38;;;;;;;9.50;4.57;;;;;;;;;;5036662;28;20475;-87
2022/03/01 12:49:06;;;;;;;8.98;4.43;;;;;;;;;;5034689;28;20096;-87
2022/03/01 12:51:34;;;;;;;10.90;4.35;;;;;;;;;;5034286;28;20057;-86
2022/03/01 12:54:01;;;;;;;17.25;4.93;;;;;;;;;;5033831;28;20146;-87
2022/03/01 12:56:28;;;;;;;13.00;4.32;;;;;;;;;;5032168;28;20043;-86
2022/03/01 12:58:56;;;;;;;12.73;5.10;;;;;;;;;;5033706;28;20024;-87
2022/03/01 13:01:22;;;;;;;10.73;4.40;;;;;;;;;;5034190;28;20021;-87
2022/03/01 13:03:50;;;;;;;13.32;4.32;;;;;;;;;;5034142;28;20024;-86
2022/03/01 13:06:17;;;;;;;10.43;5.13;;;;;;;;;;5035384;28;20029;-86
2022/03/01 13:08:44;;;;;;;13.70;5.97;;;;;;;;;;5032413;28;20032;-88
2022/03/01 13:11:12;;;;;;;11.70;4.97;;;;;;;;;;5030416;28;20495;-86
2022/03/01 13:13:42;;;;;;;14.52;5.20;;;;;;;;;;5036211;28;20033;-85
2022/03/01 13:16:08;;;;;;;11.17;5.27;;;;;;;;;;5034693;28;20052;-85
2022/03/01 13:18:35;;;;;;;16.08;6.35;;;;;;;;;;5034118;28;20033;-85
2022/03/01 13:21:01;;;;;;;13.57;6.25;;;;;;;;;;5033936;28;20478;-85
2022/03/01 13:23:28;;;;;;;16.45;6.13;;;;;;;;;;5033511;28;20021;-85
2022/03/01 13:25:56;;;;;;;13.82;5.65;;;;;;;;;;5032344;28;20030;-86
2022/03/01 13:28:38;;;;;;;13.70;6.22;;;;;;;;;;5036519;28;20032;-84
2022/03/01 13:31:07;;;;;;;13.50;5.80;;;;;;;;;;5034629;28;20039;-84
2022/03/01 13:33:34;;;;;;;13.30;6.18;;;;;;;;;;5034440;28;20441;-85
2022/03/01 13:36:11;;;;;;;14.23;5.65;;;;;;;;;;5034223;28;20110;-85
2022/03/01 13:38:37;;;;;;;17.27;6.20;;;;;;;;;;5033187;28;20040;-84
2022/03/01 13:41:04;;;;;;;13.75;6.82;;;;;;;;;;5030551;28;20045;-84
2022/03/01 13:43:30;;;;;;;16.60;6.10;;;;;;;;;;5036028;28;20030;-85
2022/03/01 13:46:01;;;;;;;15.55;6.38;;;;;;;;;;5035674;28;20491;-84
2022/03/01 13:48:29;;;;;;;13.68;5.60;;;;;;;;;;5031413;28;20032;-84
2022/03/01 13:51:03;;;;;;;15.00;5.85;;;;;;;;;;5032164;28;20025;-85
2022/03/01 13:53:29;;;;;;;14.75;5.78;;;;;;;;;;5031485;28;20044;-85
2022/03/01 13:55:56;;;;;;;16.10;5.75;;;;;;;;;;5032293;28;20021;-85
2022/03/01 13:58:23;;;;;;;13.93;5.65;;;;;;;;;;5035037;28;20033;-84
2022/03/01 14:00:51;;;;;;;17.45;6.32;;;;;;;;;;5033730;28;20478;-84
2022/03/01 14:03:18;;;;;;;15.60;5.57;;;;;;;;;;5033138;28;20502;-85
2022/03/01 14:05:55;;;;;;;19.02;6.25;;;;;;;;;;5036545;28;20396;-84
2022/03/01 14:08:22;;;;;;;19.73;5.95;;;;;;;;;;5023983;28;20032;-85
2022/03/01 14:11:00;;;;;;;16.27;6.38;;;;;;;;;;5037057;28;20030;-84
2022/03/01 14:13:27;;;;;;;16.00;5.63;;;;;;;;;;5039356;28;20486;-85
2022/03/01 14:16:07;;;;;;;18.00;5.78;;;;;;;;;;5037325;28;20029;-85
2022/03/01 14:18:35;;;;;;;20.48;5.25;;;;;;;;;;5037339;28;20037;-85
2022/03/01 14:21:02;;;;;;;15.85;5.45;;;;;;;;;;5037384;28;20021;-84
2022/03/01 14:23:29;;;;;;;14.25;4.70;;;;;;;;;;5035053;28;20044;-85
2022/03/01 14:25:56;;;;;;;15.88;5.65;;;;;;;;;;5035667;28;20028;-84
2022/03/01 14:28:22;;;;;;;14.75;5.55;;;;;;;;;;5036814;28;20030;-84
2022/03/01 14:30:48;;;;;;;18.25;5.72;;;;;;;;;;5035794;28;20096;-85
2022/03/01 14:33:15;;;;;;;17.08;5.60;;;;;;;;;;5037058;28;20039;-85
2022/03/01 14:35:41;;;;;;;17.08;5.70;;;;;;;;;;5036468;28;20017;-84